createdAt,value
2018-02-10T00:01:51.400Z,3.04
2018-02-10T00:04:18.893Z,3.05
2018-02-10T00:06:46.366Z,3.09
2018-02-10T00:09:13.784Z,3.04
2018-02-10T00:11:41.284Z,3.06
2018-02-10T00:14:08.688Z,3.05
2018-02-10T00:16:36.113Z,3.11
2018-02-10T00:19:03.536Z,3.07
2018-02-10T00:21:30.952Z,2.98
2018-02-10T00:23:58.399Z,3.08
2018-02-10T00:26:25.832Z,3.03
2018-02-10T00:28:53.304Z,3.06
2018-02-10T00:31:20.711Z,3.00
2018-02-10T00:33:48.124Z,3.04
2018-02-10T00:36:15.569Z,3.12
2018-02-10T00:38:43.005Z,3.11
2018-02-10T00:41:10.484Z,3.06
2018-02-10T00:43:37.894Z,3.05
2018-02-10T00:46:05.316Z,2.93
2018-02-10T00:48:32.750Z,2.86
2018-02-10T00:51:00.208Z,2.82
2018-02-10T00:53:27.680Z,2.87
2018-02-10T00:55:55.081Z,2.75
2018-02-10T00:58:22.509Z,2.83
2018-02-10T01:00:49.933Z,2.84
2018-02-10T01:03:17.401Z,2.91
2018-02-10T01:05:44.848Z,2.87
2018-02-10T01:08:12.299Z,2.75
2018-02-10T01:10:39.744Z,2.78
2018-02-10T01:13:07.194Z,2.84
2018-02-10T01:15:34.657Z,2.76
2018-02-10T01:18:02.080Z,2.79
2018-02-10T01:20:29.507Z,2.91
2018-02-10T01:22:56.941Z,2.84
2018-02-10T01:25:24.373Z,2.78
2018-02-10T01:27:51.813Z,2.74
2018-02-10T01:30:19.246Z,2.61
2018-02-10T01:32:46.813Z,2.67
2018-02-10T01:35:14.252Z,2.63
2018-02-10T01:37:41.684Z,2.63
2018-02-10T01:40:09.129Z,2.70
2018-02-10T01:42:36.553Z,2.78
2018-02-10T01:45:04.011Z,2.66
2018-02-10T01:47:31.433Z,2.68
2018-02-10T01:50:10.553Z,2.73
2018-02-10T01:52:38.077Z,2.59
2018-02-10T01:55:05.496Z,2.65
2018-02-10T01:57:32.904Z,2.58
2018-02-10T02:00:00.436Z,2.57
2018-02-10T02:02:27.874Z,2.61
2018-02-10T02:04:55.308Z,2.72
2018-02-10T02:07:22.734Z,2.75
2018-02-10T02:09:50.152Z,2.77
2018-02-10T02:12:17.577Z,2.65
2018-02-10T02:14:45.039Z,2.50
2018-02-10T02:17:12.448Z,2.50
2018-02-10T02:19:39.901Z,2.58
2018-02-10T02:22:07.341Z,2.57
2018-02-10T02:24:34.793Z,2.54
2018-02-10T02:27:02.260Z,2.60
2018-02-10T02:29:29.731Z,2.52
2018-02-10T02:31:57.149Z,2.53
2018-02-10T02:34:24.574Z,2.62
2018-02-10T02:36:52.009Z,2.59
2018-02-10T02:39:19.465Z,2.48
2018-02-10T02:41:46.916Z,2.57
2018-02-10T02:44:14.363Z,2.52
2018-02-10T02:46:41.778Z,2.53
2018-02-10T02:49:09.203Z,2.51
2018-02-10T02:51:36.665Z,2.49
2018-02-10T02:54:09.453Z,2.50
2018-02-10T02:56:36.880Z,2.54
2018-02-10T02:59:04.317Z,2.52
2018-02-10T03:01:31.752Z,2.47
2018-02-10T03:03:59.169Z,2.52
2018-02-10T03:06:26.629Z,2.57
2018-02-10T03:08:54.068Z,2.61
2018-02-10T03:11:21.513Z,2.65
2018-02-10T03:13:48.941Z,2.71
2018-02-10T03:16:16.360Z,2.67
2018-02-10T03:18:43.789Z,2.68
2018-02-10T03:21:11.221Z,2.73
2018-02-10T03:23:38.684Z,2.79
2018-02-10T03:26:06.092Z,2.81
2018-02-10T03:28:33.547Z,2.74
2018-02-10T03:31:00.998Z,2.75
2018-02-10T03:33:28.432Z,2.82
2018-02-10T03:35:55.844Z,2.87
2018-02-10T03:38:23.256Z,2.88
2018-02-10T03:40:50.685Z,2.84
2018-02-10T03:43:18.126Z,2.90
2018-02-10T03:45:45.568Z,2.88
2018-02-10T03:48:13.030Z,2.76
2018-02-10T03:50:40.449Z,2.81
2018-02-10T03:53:07.882Z,2.72
2018-02-10T03:55:35.349Z,2.87
2018-02-10T03:58:02.797Z,2.80
2018-02-10T04:00:30.257Z,2.80
2018-02-10T04:02:57.685Z,2.80
2018-02-10T04:05:25.110Z,2.80
2018-02-10T04:07:52.528Z,2.87
2018-02-10T04:10:19.969Z,2.91
2018-02-10T04:12:47.396Z,2.91
2018-02-10T04:15:14.866Z,2.90
2018-02-10T04:17:42.272Z,2.93
2018-02-10T04:20:09.712Z,2.98
2018-02-10T04:22:37.440Z,2.99
2018-02-10T04:25:04.861Z,3.03
2018-02-10T04:27:32.318Z,3.03
2018-02-10T04:29:59.736Z,3.03
2018-02-10T04:32:27.165Z,2.96
2018-02-10T04:34:54.595Z,2.98
2018-02-10T04:37:22.052Z,2.96
2018-02-10T04:39:49.499Z,2.98
2018-02-10T04:42:16.933Z,2.85
2018-02-10T04:44:44.349Z,2.93
2018-02-10T04:47:11.798Z,2.95
2018-02-10T04:49:39.251Z,3.00
2018-02-10T04:52:06.688Z,3.05
2018-02-10T04:54:34.130Z,3.06
2018-02-10T04:57:01.617Z,2.97
2018-02-10T04:59:29.045Z,2.84
2018-02-10T05:01:56.484Z,2.89
2018-02-10T05:04:23.912Z,2.95
2018-02-10T05:06:51.334Z,3.00
2018-02-10T05:09:18.745Z,2.91
2018-02-10T05:11:46.212Z,3.00
2018-02-10T05:14:13.630Z,3.07
2018-02-10T05:16:41.056Z,3.14
2018-02-10T05:19:08.511Z,3.16
2018-02-10T05:21:35.987Z,3.15
2018-02-10T05:24:03.420Z,3.15
2018-02-10T05:26:30.877Z,3.16
2018-02-10T05:28:58.343Z,3.05
2018-02-10T05:31:25.759Z,3.02
2018-02-10T05:33:53.172Z,3.08
2018-02-10T05:36:20.636Z,2.93
2018-02-10T05:38:48.051Z,2.98
2018-02-10T05:41:15.503Z,3.03
2018-02-10T05:43:42.920Z,3.04
2018-02-10T05:46:10.364Z,2.99
2018-02-10T05:48:37.792Z,2.95
2018-02-10T05:51:05.245Z,3.03
2018-02-10T05:53:32.721Z,3.02
2018-02-10T05:56:00.146Z,2.98
2018-02-10T05:58:27.568Z,3.04
2018-02-10T06:00:54.988Z,3.13
2018-02-10T06:03:22.403Z,3.14
2018-02-10T06:05:49.832Z,3.12
2018-02-10T06:08:17.260Z,3.06
2018-02-10T06:10:44.735Z,3.01
2018-02-10T06:13:12.141Z,3.02
2018-02-10T06:15:39.573Z,3.10
2018-02-10T06:18:07.021Z,3.13
2018-02-10T06:20:34.448Z,3.08
2018-02-10T06:23:01.868Z,2.99
2018-02-10T06:25:29.318Z,3.05
2018-02-10T06:27:56.764Z,3.01
2018-02-10T06:30:24.225Z,3.11
2018-02-10T06:32:51.662Z,3.11
2018-02-10T06:35:19.132Z,3.00
2018-02-10T06:37:46.643Z,3.02
2018-02-10T06:40:14.093Z,3.09
2018-02-10T06:42:41.533Z,3.13
2018-02-10T06:45:09.006Z,3.16
2018-02-10T06:47:36.441Z,3.12
2018-02-10T06:50:03.896Z,3.16
2018-02-10T06:52:31.320Z,3.18
2018-02-10T06:54:58.764Z,3.14
2018-02-10T06:57:26.207Z,3.07
2018-02-10T06:59:53.648Z,3.11
2018-02-10T07:02:21.137Z,3.07
2018-02-10T07:04:48.953Z,3.20
2018-02-10T07:07:16.356Z,3.17
2018-02-10T07:09:43.785Z,3.19
2018-02-10T07:12:11.234Z,3.24
2018-02-10T07:14:38.648Z,3.29
2018-02-10T07:17:06.083Z,3.36
2018-02-10T07:19:33.529Z,3.38
2018-02-10T07:22:00.951Z,3.34
2018-02-10T07:24:28.385Z,3.42
2018-02-10T07:26:55.812Z,3.40
2018-02-10T07:29:23.236Z,3.26
2018-02-10T07:31:50.657Z,3.37
2018-02-10T07:34:18.079Z,3.39
2018-02-10T07:36:45.516Z,3.39
2018-02-10T07:39:12.924Z,3.44
2018-02-10T07:41:40.388Z,3.52
2018-02-10T07:44:07.813Z,3.44
2018-02-10T07:46:35.268Z,3.49
2018-02-10T07:49:02.716Z,3.51
2018-02-10T07:51:30.160Z,3.47
2018-02-10T07:53:57.671Z,3.52
2018-02-10T07:56:25.162Z,3.59
2018-02-10T07:58:52.568Z,3.56
2018-02-10T08:01:20.024Z,3.46
2018-02-10T08:03:47.474Z,3.48
2018-02-10T08:06:15.021Z,3.46
2018-02-10T08:08:42.467Z,3.54
2018-02-10T08:11:10.717Z,3.64
2018-02-10T08:13:38.186Z,3.71
2018-02-10T08:16:05.612Z,3.63
2018-02-10T08:18:33.094Z,3.61
2018-02-10T08:21:00.565Z,3.63
2018-02-10T08:23:28.148Z,3.59
2018-02-10T08:25:55.676Z,3.55
2018-02-10T08:28:23.475Z,3.58
2018-02-10T08:30:50.960Z,3.53
2018-02-10T08:33:18.389Z,3.64
2018-02-10T08:35:45.865Z,3.66
2018-02-10T08:38:13.293Z,3.65
2018-02-10T08:40:40.763Z,3.72
2018-02-10T08:43:08.201Z,3.75
2018-02-10T08:45:35.643Z,3.75
2018-02-10T08:48:03.189Z,3.86
2018-02-10T08:50:30.629Z,3.90
2018-02-10T08:52:58.044Z,3.95
2018-02-10T08:55:25.491Z,3.93
2018-02-10T08:57:52.945Z,3.81
2018-02-10T09:00:20.365Z,3.85
2018-02-10T09:02:47.817Z,3.91
2018-02-10T09:05:15.241Z,3.94
2018-02-10T09:07:42.684Z,3.97
2018-02-10T09:10:10.116Z,4.03
2018-02-10T09:12:37.537Z,4.08
2018-02-10T09:15:05.068Z,4.11
2018-02-10T09:17:32.469Z,4.06
2018-02-10T09:19:59.873Z,4.07
2018-02-10T09:22:27.304Z,4.10
2018-02-10T09:24:54.728Z,4.01
2018-02-10T09:27:22.158Z,3.99
2018-02-10T09:29:49.634Z,4.04
2018-02-10T09:32:17.093Z,3.96
2018-02-10T09:34:44.525Z,3.93
2018-02-10T09:37:11.944Z,3.89
2018-02-10T09:39:39.368Z,3.87
2018-02-10T09:42:06.800Z,3.87
2018-02-10T09:44:34.225Z,3.77
2018-02-10T09:47:01.701Z,3.77
2018-02-10T09:49:29.145Z,3.89
2018-02-10T09:51:56.568Z,3.96
2018-02-10T09:54:24.040Z,4.08
2018-02-10T09:56:51.539Z,4.09
2018-02-10T09:59:18.984Z,4.08
2018-02-10T10:01:46.476Z,4.10
2018-02-10T10:04:13.843Z,4.07
2018-02-10T10:06:41.316Z,4.07
2018-02-10T10:09:08.732Z,4.11
2018-02-10T10:11:36.173Z,4.16
2018-02-10T10:14:03.607Z,4.19
2018-02-10T10:16:31.039Z,4.17
2018-02-10T10:18:58.461Z,4.08
2018-02-10T10:21:25.900Z,4.06
2018-02-10T10:23:53.353Z,4.01
2018-02-10T10:26:20.815Z,4.06
2018-02-10T10:28:48.233Z,4.04
2018-02-10T10:31:15.676Z,4.03
2018-02-10T10:33:43.120Z,4.03
2018-02-10T10:36:10.548Z,4.00
2018-02-10T10:38:37.984Z,4.00
2018-02-10T10:41:05.876Z,3.94
2018-02-10T10:43:33.326Z,3.96
2018-02-10T10:46:00.822Z,3.99
2018-02-10T10:48:28.298Z,4.08
2018-02-10T10:50:55.709Z,4.06
2018-02-10T10:53:23.141Z,4.08
2018-02-10T10:55:50.619Z,4.16
2018-02-10T10:58:18.044Z,4.17
2018-02-10T11:00:45.488Z,4.09
2018-02-10T11:03:12.932Z,4.14
2018-02-10T11:05:40.364Z,4.02
2018-02-10T11:08:07.784Z,3.96
2018-02-10T11:10:35.263Z,3.92
2018-02-10T11:13:02.695Z,3.91
2018-02-10T11:15:30.194Z,3.86
2018-02-10T11:17:57.663Z,3.89
2018-02-10T11:20:25.073Z,3.92
2018-02-10T11:22:52.524Z,3.87
2018-02-10T11:25:19.961Z,3.90
2018-02-10T11:27:47.400Z,3.91
2018-02-10T11:30:14.821Z,3.95
2018-02-10T11:32:42.264Z,3.93
2018-02-10T11:35:09.670Z,3.95
2018-02-10T11:37:37.278Z,3.93
2018-02-10T11:40:04.752Z,3.84
2018-02-10T11:42:32.152Z,3.83
2018-02-10T11:44:59.572Z,3.92
2018-02-10T11:47:27.005Z,3.90
2018-02-10T11:49:54.438Z,3.95
2018-02-10T11:52:21.857Z,3.95
2018-02-10T11:54:49.281Z,3.95
2018-02-10T11:57:16.700Z,3.92
2018-02-10T11:59:44.114Z,3.99
2018-02-10T12:02:11.540Z,4.13
2018-02-10T12:04:38.953Z,4.12
2018-02-10T12:07:06.400Z,4.13
2018-02-10T12:09:33.809Z,4.19
2018-02-10T12:12:01.250Z,4.24
2018-02-10T12:14:28.685Z,4.21
2018-02-10T12:16:56.099Z,4.23
2018-02-10T12:19:23.528Z,4.24
2018-02-10T12:21:50.972Z,4.21
2018-02-10T12:24:18.384Z,4.26
2018-02-10T12:26:45.800Z,4.30
2018-02-10T12:29:13.221Z,4.33
2018-02-10T12:31:40.640Z,4.26
2018-02-10T12:34:08.049Z,4.37
2018-02-10T12:36:35.473Z,4.28
2018-02-10T12:39:02.898Z,4.34
2018-02-10T12:41:30.334Z,4.25
2018-02-10T12:43:57.753Z,4.20
2018-02-10T12:46:25.175Z,4.23
2018-02-10T12:48:58.265Z,4.22
2018-02-10T12:51:25.681Z,4.27
2018-02-10T12:53:53.109Z,4.35
2018-02-10T12:56:20.529Z,4.26
2018-02-10T12:58:47.969Z,4.19
2018-02-10T13:01:15.389Z,4.34
2018-02-10T13:03:42.809Z,4.30
2018-02-10T13:06:10.244Z,4.39
2018-02-10T13:08:37.664Z,4.33
2018-02-10T13:11:05.084Z,4.37
2018-02-10T13:13:32.523Z,4.48
2018-02-10T13:15:59.937Z,4.54
2018-02-10T13:18:27.345Z,4.61
2018-02-10T13:20:54.752Z,4.59
2018-02-10T13:23:22.174Z,4.62
2018-02-10T13:25:49.585Z,4.69
2018-02-10T13:28:17.821Z,4.75
2018-02-10T13:30:45.241Z,4.81
2018-02-10T13:33:12.653Z,4.80
2018-02-10T13:35:40.068Z,4.71
2018-02-10T13:38:07.479Z,4.72
2018-02-10T13:40:34.908Z,4.74
2018-02-10T13:43:02.343Z,4.75
2018-02-10T13:45:29.821Z,4.78
2018-02-10T13:47:57.233Z,4.81
2018-02-10T13:50:24.644Z,4.77
2018-02-10T13:52:52.085Z,4.88
2018-02-10T13:55:19.496Z,4.80
2018-02-10T13:57:46.908Z,4.87
2018-02-10T14:00:14.333Z,4.86
2018-02-10T14:02:41.747Z,4.85
2018-02-10T14:05:09.161Z,4.88
2018-02-10T14:07:36.569Z,4.86
2018-02-10T14:10:04.037Z,4.90
2018-02-10T14:12:31.596Z,4.83
2018-02-10T14:14:59.074Z,4.93
2018-02-10T14:17:26.504Z,5.00
2018-02-10T14:19:53.932Z,5.01
2018-02-10T14:22:21.358Z,4.91
2018-02-10T14:24:48.778Z,4.91
2018-02-10T14:27:16.237Z,4.92
2018-02-10T14:29:43.656Z,4.92
2018-02-10T14:32:11.112Z,4.87
2018-02-10T14:34:38.532Z,4.82
2018-02-10T14:37:05.969Z,4.91
2018-02-10T14:39:33.385Z,4.97
2018-02-10T14:42:01.461Z,4.91
2018-02-10T14:44:28.922Z,4.91
2018-02-10T14:46:56.384Z,4.95
2018-02-10T14:49:24.804Z,4.86
2018-02-10T14:51:52.252Z,4.84
2018-02-10T14:54:19.687Z,4.85
2018-02-10T14:56:47.103Z,4.89
2018-02-10T14:59:14.513Z,4.94
2018-02-10T15:01:41.941Z,4.92
2018-02-10T15:04:09.349Z,4.91
2018-02-10T15:06:36.836Z,4.92
2018-02-10T15:09:04.260Z,4.94
2018-02-10T15:11:31.692Z,4.85
2018-02-10T15:13:59.104Z,4.88
2018-02-10T15:16:26.508Z,4.81
2018-02-10T15:18:53.942Z,4.84
2018-02-10T15:21:21.352Z,4.89
2018-02-10T15:23:48.762Z,4.82
2018-02-10T15:26:16.203Z,4.91
2018-02-10T15:28:43.604Z,4.96
2018-02-10T15:34:35.665Z,4.92
2018-02-10T15:37:03.086Z,4.86
2018-02-10T15:39:30.601Z,4.80
2018-02-10T15:41:58.029Z,4.82
2018-02-10T15:44:25.439Z,4.88
2018-02-10T15:46:52.841Z,4.85
2018-02-10T15:49:20.254Z,4.95
2018-02-10T15:51:47.669Z,4.87
2018-02-10T15:54:15.098Z,4.88
2018-02-10T15:56:42.512Z,4.88
2018-02-10T15:59:09.953Z,4.87
2018-02-10T16:01:37.366Z,4.96
2018-02-10T16:04:04.821Z,4.90
2018-02-10T16:06:32.241Z,4.85
2018-02-10T16:08:59.715Z,4.84
2018-02-10T16:11:27.184Z,4.96
2018-02-10T16:13:54.624Z,4.98
2018-02-10T16:16:22.093Z,5.03
2018-02-10T16:18:49.548Z,4.91
2018-02-10T16:21:16.969Z,4.81
2018-02-10T16:23:44.423Z,4.85
2018-02-10T16:26:11.825Z,4.80
2018-02-10T16:28:39.250Z,4.84
2018-02-10T16:31:06.657Z,4.73
2018-02-10T16:33:34.143Z,4.70
2018-02-10T16:36:01.582Z,4.77
2018-02-10T16:38:29.003Z,4.83
2018-02-10T16:40:56.426Z,4.66
2018-02-10T16:43:23.849Z,4.48
2018-02-10T16:45:51.270Z,4.40
2018-02-10T16:48:18.682Z,4.29
2018-02-10T16:50:46.117Z,4.21
2018-02-10T16:53:13.534Z,4.06
2018-02-10T16:55:40.990Z,3.98
2018-02-10T16:58:08.455Z,3.94
2018-02-10T17:00:35.869Z,3.86
2018-02-10T17:03:03.289Z,3.80
2018-02-10T17:05:30.741Z,3.74
2018-02-10T17:07:58.221Z,3.64
2018-02-10T17:10:25.655Z,3.69
2018-02-10T17:12:53.185Z,3.63
2018-02-10T17:15:20.638Z,3.60
2018-02-10T17:17:48.099Z,3.55
2018-02-10T17:20:15.521Z,3.53
2018-02-10T17:22:42.957Z,3.45
2018-02-10T17:25:10.473Z,3.45
2018-02-10T17:27:37.896Z,3.42
2018-02-10T17:30:05.345Z,3.40
2018-02-10T17:32:32.764Z,3.37
2018-02-10T17:35:09.953Z,3.32
2018-02-10T17:37:37.408Z,3.27
2018-02-10T17:40:08.706Z,3.23
2018-02-10T17:42:36.116Z,3.24
2018-02-10T17:45:03.532Z,3.22
2018-02-10T17:47:30.964Z,3.22
2018-02-10T17:49:58.380Z,3.12
2018-02-10T17:52:25.798Z,3.19
2018-02-10T17:54:53.232Z,3.14
2018-02-10T17:57:20.633Z,3.15
2018-02-10T17:59:48.056Z,3.12
2018-02-10T18:02:15.473Z,3.13
2018-02-10T18:04:46.760Z,3.12
2018-02-10T18:07:14.204Z,3.06
2018-02-10T18:09:41.669Z,3.04
2018-02-10T18:12:09.133Z,3.00
2018-02-10T18:14:36.549Z,3.00
2018-02-10T18:17:10.453Z,2.97
2018-02-10T18:19:37.869Z,2.92
2018-02-10T18:22:05.349Z,2.95
2018-02-10T18:24:32.757Z,2.95
2018-02-10T18:27:00.173Z,2.97
2018-02-10T18:29:27.591Z,2.93
2018-02-10T18:31:55.004Z,2.88
2018-02-10T18:34:28.797Z,2.85
2018-02-10T18:36:56.218Z,2.90
2018-02-10T18:39:23.649Z,2.93
2018-02-10T18:41:51.066Z,2.91
2018-02-10T18:44:18.481Z,2.88
2018-02-10T18:46:45.900Z,2.86
2018-02-10T18:49:13.321Z,2.83
2018-02-10T18:51:40.749Z,2.79
2018-02-10T18:54:08.164Z,2.82
2018-02-10T18:56:35.602Z,2.79
2018-02-10T18:59:03.012Z,2.80
2018-02-10T19:01:30.428Z,2.73
2018-02-10T19:03:57.849Z,2.71
2018-02-10T19:06:25.304Z,2.63
2018-02-10T19:08:52.787Z,2.58
2018-02-10T19:11:20.158Z,2.62
2018-02-10T19:13:47.602Z,2.60
2018-02-10T19:16:21.296Z,2.62
2018-02-10T19:18:48.746Z,2.57
2018-02-10T19:21:16.153Z,2.54
2018-02-10T19:23:43.566Z,2.45
2018-02-10T19:26:11.012Z,2.40
2018-02-10T19:28:38.481Z,2.46
2018-02-10T19:31:05.960Z,2.48
2018-02-10T19:33:33.371Z,2.46
2018-02-10T19:36:00.973Z,2.48
2018-02-10T19:38:28.962Z,2.54
2018-02-10T19:40:56.437Z,2.50
2018-02-10T19:43:24.470Z,2.47
2018-02-10T19:45:53.149Z,2.44
2018-02-10T19:48:20.685Z,2.53
2018-02-10T19:50:48.128Z,2.52
2018-02-10T19:53:15.564Z,2.52
2018-02-10T19:55:43.849Z,2.61
2018-02-10T19:58:12.304Z,2.62
2018-02-10T20:00:39.749Z,2.63
2018-02-10T20:03:08.056Z,2.50
2018-02-10T20:05:35.925Z,2.58
2018-02-10T20:08:03.345Z,2.65
2018-02-10T20:10:31.330Z,2.71
2018-02-10T20:12:58.818Z,2.74
2018-02-10T20:15:26.244Z,2.73
2018-02-10T20:17:53.653Z,2.78
2018-02-10T20:20:21.089Z,2.74
2018-02-10T20:22:48.513Z,2.77
2018-02-10T20:25:15.925Z,2.75
2018-02-10T20:27:43.432Z,2.74
2018-02-10T20:30:10.852Z,2.66
2018-02-10T20:32:38.319Z,2.74
2018-02-10T20:35:05.741Z,2.76
2018-02-10T20:37:33.152Z,2.77
2018-02-10T20:40:00.634Z,2.78
2018-02-10T20:42:28.019Z,2.78
2018-02-10T20:44:55.491Z,2.80
2018-02-10T20:47:22.909Z,2.81
2018-02-10T20:49:50.356Z,2.86
2018-02-10T20:52:17.777Z,2.90
2018-02-10T20:54:45.215Z,2.92
2018-02-10T20:57:12.697Z,2.93
2018-02-10T20:59:40.113Z,2.95
2018-02-10T21:02:07.589Z,2.97
2018-02-10T21:04:35.010Z,2.91
2018-02-10T21:07:02.436Z,2.90
2018-02-10T21:09:29.865Z,2.85
2018-02-10T21:11:57.337Z,2.79
2018-02-10T21:14:24.765Z,2.87
2018-02-10T21:16:52.205Z,2.81
2018-02-10T21:19:19.658Z,2.85
2018-02-10T21:21:47.080Z,2.72
2018-02-10T21:24:14.489Z,2.80
2018-02-10T21:26:41.924Z,2.85
2018-02-10T21:29:09.335Z,2.86
2018-02-10T21:31:36.753Z,2.87
2018-02-10T21:34:04.168Z,2.90
2018-02-10T21:36:31.624Z,2.86
2018-02-10T21:38:59.029Z,2.83
2018-02-10T21:41:26.446Z,2.76
2018-02-10T21:43:53.924Z,2.83
2018-02-10T21:46:21.327Z,2.82
2018-02-10T21:48:48.776Z,2.80
2018-02-10T21:51:16.184Z,2.78
2018-02-10T21:53:43.674Z,2.82
2018-02-10T21:56:11.121Z,2.80
2018-02-10T21:58:38.527Z,2.80
2018-02-10T22:01:05.949Z,2.70
2018-02-10T22:03:33.361Z,2.76
2018-02-10T22:06:00.784Z,2.71
2018-02-10T22:08:28.204Z,2.72
2018-02-10T22:10:55.693Z,2.70
2018-02-10T22:13:23.072Z,2.64
2018-02-10T22:15:50.494Z,2.64
2018-02-10T22:18:17.924Z,2.60
2018-02-10T22:20:45.338Z,2.63
2018-02-10T22:23:12.760Z,2.64
2018-02-10T22:25:40.177Z,2.63
2018-02-10T22:28:07.625Z,2.66
2018-02-10T22:30:35.050Z,2.68
2018-02-10T22:33:02.497Z,2.67
2018-02-10T22:35:29.941Z,2.70
2018-02-10T22:37:57.368Z,2.70
2018-02-10T22:40:24.785Z,2.63
2018-02-10T22:42:52.238Z,2.65
2018-02-10T22:45:19.661Z,2.68
2018-02-10T22:47:47.090Z,2.65
2018-02-10T22:50:14.518Z,2.64
2018-02-10T22:52:41.937Z,2.66
2018-02-10T22:55:09.385Z,2.61
2018-02-10T22:57:36.812Z,2.65
2018-02-10T23:00:04.246Z,2.71
2018-02-10T23:02:31.679Z,2.64
2018-02-10T23:04:59.105Z,2.66
2018-02-10T23:07:26.547Z,2.66
2018-02-10T23:09:53.973Z,2.71
2018-02-10T23:12:21.380Z,2.74
2018-02-10T23:14:48.808Z,2.72
2018-02-10T23:17:16.215Z,2.73
2018-02-10T23:19:43.669Z,2.68
2018-02-10T23:22:11.094Z,2.67
2018-02-10T23:24:38.528Z,2.70
2018-02-10T23:27:05.945Z,2.60
2018-02-10T23:29:33.357Z,2.64
2018-02-10T23:32:00.786Z,2.62
2018-02-10T23:34:28.276Z,2.60
2018-02-10T23:36:55.701Z,2.57
2018-02-10T23:39:23.117Z,2.57
2018-02-10T23:41:50.586Z,2.58
2018-02-10T23:44:18.053Z,2.55
2018-02-10T23:46:45.466Z,2.55
2018-02-10T23:49:12.929Z,2.59
2018-02-10T23:51:40.366Z,2.63
2018-02-10T23:54:07.816Z,2.64
2018-02-10T23:56:35.233Z,2.68
2018-02-10T23:59:02.640Z,2.64
